Time;durP1;ratioP1;P1;durP2;ratioP2;P2;SDS_P1;SDS_P2;PMS_P1;PMS_P2;Temp;Humidity;BMP_temperature;BMP_pressure;BME280_temperature;BME280_humidity;BME280_pressure;Samples;Min_cycle;Max_cycle;Signal;HPM_P1;HPM_P2
2022/02/07 00:00:46;;;;;;;8.13;1.20;;;3.40;99.90;;;;;;5071115;28;20634;-72
2022/02/07 00:05:38;;;;;;;9.18;1.25;;;3.40;99.90;;;;;;5070834;28;20118;-72
2022/02/07 00:08:05;;;;;;;9.00;1.73;;;3.30;99.90;;;;;;5069876;28;20048;-72
2022/02/07 00:10:31;;;;;;;5.57;1.27;;;3.50;99.90;;;;;;5069922;28;20101;-72
2022/02/07 00:12:56;;;;;;;8.52;1.88;;;3.40;99.90;;;;;;5047051;28;20370;-72
2022/02/07 00:15:22;;;;;;;10.25;1.70;;;3.50;99.90;;;;;;5053189;28;20536;-72
2022/02/07 00:17:48;;;;;;;9.00;1.30;;;3.50;99.90;;;;;;5070262;28;20132;-72
2022/02/07 00:20:20;;;;;;;9.82;2.03;;;3.50;99.90;;;;;;5062328;28;20059;-73
2022/02/07 00:22:46;;;;;;;5.43;1.92;;;3.50;99.90;;;;;;5052733;28;20528;-72
2022/02/07 00:25:13;;;;;;;13.23;2.65;;;3.60;99.90;;;;;;5055575;28;20093;-72
2022/02/07 00:27:39;;;;;;;12.73;1.63;;;3.70;99.90;;;;;;5060045;28;20040;-72
2022/02/07 00:30:07;;;;;;;9.90;1.83;;;3.80;99.90;;;;;;5065834;28;20037;-72
2022/02/07 00:32:33;;;;;;;7.30;1.65;;;3.80;99.90;;;;;;5055646;28;20102;-72
2022/02/07 00:34:59;;;;;;;8.32;1.80;;;3.70;99.90;;;;;;5051016;28;20045;-72
2022/02/07 00:37:27;;;;;;;14.23;2.30;;;3.90;99.90;;;;;;5056438;28;20049;-72
2022/02/07 00:40:02;;;;;;;13.50;1.50;;;4.00;99.90;;;;;;5058857;28;22803;-72
2022/02/07 00:42:32;;;;;;;10.52;1.83;;;4.10;99.90;;;;;;5064914;28;20072;-72
2022/02/07 00:45:05;;;;;;;11.93;2.40;;;4.00;99.90;;;;;;5060623;28;20584;-72
2022/02/07 00:47:31;;;;;;;9.93;1.55;;;4.00;99.90;;;;;;5063505;28;20040;-72
2022/02/07 00:49:57;;;;;;;22.50;2.95;;;4.10;99.90;;;;;;5039278;28;20060;-73
2022/02/07 00:52:23;;;;;;;12.77;2.05;;;4.10;99.90;;;;;;5064484;28;20363;-72
2022/02/07 00:54:50;;;;;;;13.55;2.25;;;4.20;99.90;;;;;;5050132;28;20045;-73
2022/02/07 00:57:15;;;;;;;15.75;2.63;;;4.10;99.90;;;;;;5065355;28;20040;-72
2022/02/07 00:59:41;;;;;;;14.43;2.67;;;4.10;99.90;;;;;;5061651;28;20360;-72
2022/02/07 01:02:06;;;;;;;14.05;2.17;;;4.20;99.90;;;;;;5065198;28;20119;-72
2022/02/07 01:04:32;;;;;;;22.63;2.22;;;4.20;99.90;;;;;;5059619;28;20051;-73
2022/02/07 01:06:58;;;;;;;15.80;3.00;;;4.40;99.90;;;;;;5069734;28;20051;-73
2022/02/07 01:09:29;;;;;;;19.85;2.55;;;4.50;99.90;;;;;;5069472;28;20089;-73
2022/02/07 01:12:11;;;;;;;10.03;2.07;;;4.50;99.90;;;;;;5056200;28;20371;-72
2022/02/07 01:14:57;;;;;;;13.50;2.50;;;4.50;99.90;;;;;;5043591;28;20409;-72
2022/02/07 01:22:57;;;;;;;17.83;3.50;;;4.60;99.90;;;;;;5061480;28;20056;-73
2022/02/07 01:47:40;;;;;;;8.20;1.10;;;4.50;99.90;;;;;;5068276;28;20059;-72
2022/02/07 01:57:35;;;;;;;12.32;2.00;;;4.50;99.90;;;;;;5071994;28;20045;-72
2022/02/07 02:00:03;;;;;;;8.68;1.95;;;4.60;99.90;;;;;;5066770;28;20479;-73
2022/02/07 02:02:28;;;;;;;9.90;1.88;;;4.60;99.90;;;;;;5066316;28;20063;-72
2022/02/07 02:04:55;;;;;;;11.40;1.92;;;4.60;99.90;;;;;;5071862;28;20036;-73
2022/02/07 02:07:20;;;;;;;13.27;2.28;;;4.60;99.90;;;;;;5072377;28;20405;-72
2022/02/07 02:09:46;;;;;;;9.50;1.88;;;4.60;99.90;;;;;;5066908;28;20040;-72
2022/02/07 02:12:12;;;;;;;12.02;2.35;;;4.70;99.90;;;;;;5070868;28;20457;-72
2022/02/07 02:14:50;;;;;;;16.67;2.00;;;4.70;99.90;;;;;;5054227;28;20081;-72
2022/02/07 02:38:42;;;;;;;17.75;2.95;;;5.00;99.90;;;;;;5071764;28;20056;-72
2022/02/07 02:46:41;;;;;;;11.75;2.10;;;4.90;99.90;;;;;;5028484;28;20044;-72
2022/02/07 02:49:06;;;;;;;13.43;2.58;;;4.80;99.90;;;;;;5068005;28;20028;-72
2022/02/07 02:51:32;;;;;;;12.05;1.77;;;5.00;99.90;;;;;;5068992;28;20109;-72
2022/02/07 02:53:58;;;;;;;14.70;2.97;;;4.90;99.90;;;;;;5069854;28;20098;-72
2022/02/07 02:56:23;;;;;;;10.98;2.83;;;5.00;99.90;;;;;;5070711;28;20476;-72
2022/02/07 02:58:49;;;;;;;17.00;2.75;;;4.90;99.90;;;;;;5054564;28;20615;-72
2022/02/07 03:01:15;;;;;;;9.60;1.73;;;4.80;99.90;;;;;;5071174;28;20042;-72
2022/02/07 03:03:41;;;;;;;10.57;1.95;;;4.90;99.90;;;;;;5068988;28;20072;-72
2022/02/07 03:06:06;;;;;;;18.83;2.28;;;4.90;99.90;;;;;;5071547;28;20052;-72
2022/02/07 03:08:32;;;;;;;9.95;2.20;;;4.80;99.90;;;;;;5071805;28;20102;-72
2022/02/07 03:18:42;;;;;;;12.95;2.50;;;5.00;99.90;;;;;;5048139;28;20126;-72
2022/02/07 03:21:08;;;;;;;11.32;2.35;;;5.10;99.90;;;;;;5071631;28;20490;-73
2022/02/07 03:23:33;;;;;;;12.65;2.03;;;5.10;99.90;;;;;;5068652;28;20115;-73
2022/02/07 03:25:59;;;;;;;17.35;3.38;;;5.20;99.90;;;;;;5070600;28;20051;-72
2022/02/07 03:28:27;;;;;;;16.95;2.83;;;5.10;99.90;;;;;;5071813;28;20493;-72
2022/02/07 03:30:53;;;;;;;18.38;3.03;;;5.10;99.90;;;;;;5064905;28;20041;-73
2022/02/07 03:33:19;;;;;;;11.15;1.70;;;5.10;99.90;;;;;;5069680;28;20123;-72
2022/02/07 03:35:45;;;;;;;11.85;2.25;;;5.10;99.90;;;;;;5071179;28;20135;-72
2022/02/07 03:38:10;;;;;;;16.92;2.33;;;5.20;99.90;;;;;;5070635;28;20039;-72
2022/02/07 03:40:37;;;;;;;18.33;2.78;;;5.20;99.90;;;;;;5071178;28;20040;-72
2022/02/07 03:43:02;;;;;;;15.10;2.15;;;5.10;99.90;;;;;;5066038;28;20118;-72
2022/02/07 03:45:28;;;;;;;13.48;2.30;;;5.00;99.90;;;;;;5070306;28;20037;-72
2022/02/07 03:47:54;;;;;;;11.68;2.17;;;4.90;99.90;;;;;;5066694;28;20036;-72
2022/02/07 03:50:20;;;;;;;9.48;2.08;;;4.80;99.90;;;;;;5066166;28;20359;-73
2022/02/07 03:52:46;;;;;;;14.57;2.00;;;4.70;99.90;;;;;;5061084;28;20102;-72
2022/02/07 03:55:11;;;;;;;15.10;2.13;;;4.80;99.90;;;;;;5064495;28;20402;-72
2022/02/07 03:57:37;;;;;;;16.58;2.88;;;4.70;99.90;;;;;;5069110;28;20036;-73
2022/02/07 04:00:09;;;;;;;19.13;3.00;;;4.60;99.90;;;;;;5069860;28;20421;-72
2022/02/07 04:02:39;;;;;;;13.27;2.72;;;4.60;99.90;;;;;;5045862;28;20064;-72
2022/02/07 04:07:54;;;;;;;15.68;2.42;;;4.50;99.90;;;;;;5041466;28;20071;-72
2022/02/07 04:10:21;;;;;;;15.05;3.03;;;4.50;99.90;;;;;;5070129;28;20033;-72
2022/02/07 04:12:53;;;;;;;18.85;2.42;;;4.50;99.90;;;;;;5052360;28;20028;-73
2022/02/07 04:15:19;;;;;;;;;;;4.50;99.90;;;;;;5068101;28;20044;-73
2022/02/07 04:17:52;;;;;;;19.88;3.28;;;4.50;99.90;;;;;;5064099;28;19923;-72
2022/02/07 04:20:18;;;;;;;27.58;3.88;;;4.60;99.90;;;;;;5068308;28;20076;-73
2022/02/07 04:22:44;;;;;;;24.90;4.28;;;4.60;99.90;;;;;;5065086;28;20525;-72
2022/02/07 04:25:10;;;;;;;20.20;3.45;;;4.60;99.90;;;;;;5057426;28;20041;-72
2022/02/07 04:27:36;;;;;;;13.73;2.63;;;4.60;99.90;;;;;;5052081;28;20040;-73
2022/02/07 04:30:06;;;;;;;20.60;3.72;;;4.70;99.90;;;;;;5074871;28;20047;-72
2022/02/07 04:32:32;;;;;;;19.23;2.67;;;4.70;99.90;;;;;;5067669;28;20045;-73
2022/02/07 04:34:58;;;;;;;18.40;3.40;;;4.80;99.90;;;;;;5070053;28;20036;-72
2022/02/07 04:37:24;;;;;;;28.50;3.45;;;4.80;99.90;;;;;;5068464;28;20358;-73
2022/02/07 04:39:51;;;;;;;22.27;3.50;;;4.90;99.90;;;;;;5069179;28;20052;-73
2022/02/07 04:42:18;;;;;;;25.15;4.22;;;5.00;99.90;;;;;;5038400;28;20040;-72
2022/02/07 04:44:57;;;;;;;21.30;3.67;;;5.10;99.90;;;;;;5060981;28;20815;-72
2022/02/07 04:54:59;;;;;;;14.73;2.72;;;4.90;99.90;;;;;;5056880;28;20522;-72
2022/02/07 05:02:46;;;;;;;15.05;2.55;;;4.90;99.90;;;;;;5061735;28;20044;-72
2022/02/07 05:13:37;;;;;;;;;;;4.90;99.90;;;;;;5070597;28;20048;-72
2022/02/07 05:13:48;;;;;;;17.88;2.70;;;4.80;99.90;;;;;;5052508;28;20048;-72
2022/02/07 05:16:24;;;;;;;20.48;3.10;;;4.90;99.90;;;;;;5058859;28;20716;-72
2022/02/07 05:18:53;;;;;;;25.70;3.50;;;4.80;99.90;;;;;;5070002;28;20131;-72
2022/02/07 05:21:20;;;;;;;27.98;3.95;;;4.80;99.90;;;;;;5053103;28;20041;-72
2022/02/07 05:23:46;;;;;;;25.95;4.00;;;4.70;99.90;;;;;;5066830;28;20037;-72
2022/02/07 05:26:12;;;;;;;19.88;3.70;;;4.70;99.90;;;;;;5066581;28;20044;-73
2022/02/07 05:28:37;;;;;;;24.33;3.45;;;4.70;99.90;;;;;;5061543;28;20032;-72
2022/02/07 05:31:03;;;;;;;28.70;4.35;;;4.80;99.90;;;;;;5060479;28;20041;-72
2022/02/07 05:33:29;;;;;;;16.92;2.95;;;4.70;99.90;;;;;;5068450;28;20051;-73
2022/02/07 05:35:55;;;;;;;19.52;3.30;;;4.80;99.90;;;;;;5049866;28;20079;-72
2022/02/07 05:38:21;;;;;;;22.23;3.60;;;4.90;99.90;;;;;;5067672;28;20043;-72
2022/02/07 05:41:00;;;;;;;12.10;2.65;;;5.00;99.90;;;;;;5048083;28;20033;-73
2022/02/07 05:43:25;;;;;;;11.77;1.95;;;5.00;99.90;;;;;;5058366;28;20071;-72
2022/02/07 05:45:51;;;;;;;7.97;2.00;;;4.90;99.90;;;;;;5068913;28;20490;-72
2022/02/07 05:48:17;;;;;;;8.00;1.60;;;5.00;99.90;;;;;;5058206;28;20044;-72
2022/02/07 05:50:42;;;;;;;13.30;2.53;;;5.10;99.90;;;;;;5068021;28;20047;-72
2022/02/07 05:53:08;;;;;;;9.52;1.70;;;4.90;99.90;;;;;;5065787;28;20045;-72
2022/02/07 05:55:33;;;;;;;9.38;1.58;;;4.90;99.90;;;;;;5063726;28;20040;-72
2022/02/07 05:57:59;;;;;;;12.88;2.20;;;4.90;99.90;;;;;;5067906;28;20052;-72
2022/02/07 06:00:26;;;;;;;13.98;2.17;;;4.80;99.90;;;;;;5058418;28;20126;-72
2022/02/07 06:02:51;;;;;;;10.25;2.90;;;4.70;99.90;;;;;;5069454;28;20048;-73
2022/02/07 06:05:17;;;;;;;18.48;3.22;;;4.70;99.90;;;;;;5068406;28;20375;-72
2022/02/07 06:07:42;;;;;;;14.88;2.20;;;4.60;99.90;;;;;;5069392;28;20159;-73
2022/02/07 06:10:08;;;;;;;14.48;2.17;;;4.60;99.90;;;;;;5067291;28;20040;-72
2022/02/07 06:12:35;;;;;;;14.77;2.53;;;4.60;99.90;;;;;;5060978;28;20033;-72
2022/02/07 06:15:01;;;;;;;20.23;2.22;;;4.50;99.90;;;;;;5049445;28;20045;-72
2022/02/07 06:17:27;;;;;;;15.05;2.78;;;4.40;99.90;;;;;;5063532;28;20048;-72
2022/02/07 06:19:53;;;;;;;15.75;2.72;;;4.40;99.90;;;;;;5071052;28;20040;-72
2022/02/07 06:22:19;;;;;;;18.65;3.10;;;4.30;99.90;;;;;;5076582;22;20537;-71
2022/02/07 06:24:44;;;;;;;14.82;2.42;;;4.30;99.90;;;;;;5060372;28;20055;-71
2022/02/07 06:27:10;;;;;;;16.05;2.78;;;4.20;99.90;;;;;;5069068;28;20058;-71
2022/02/07 06:29:36;;;;;;;15.40;2.40;;;4.10;99.90;;;;;;5046311;28;20045;-71
2022/02/07 06:32:02;;;;;;;13.85;2.65;;;4.10;99.90;;;;;;5071329;28;20037;-72
2022/02/07 06:34:27;;;;;;;14.88;2.22;;;4.00;99.90;;;;;;5069161;28;20041;-71
2022/02/07 06:36:53;;;;;;;11.02;1.85;;;4.00;99.90;;;;;;5046585;28;21675;-71
2022/02/07 06:39:19;;;;;;;18.00;2.10;;;4.00;99.90;;;;;;5064261;28;20073;-71
2022/02/07 06:41:46;;;;;;;17.30;2.40;;;3.90;99.90;;;;;;5069319;28;20045;-71
2022/02/07 06:44:12;;;;;;;12.75;2.55;;;3.90;99.90;;;;;;5060163;28;20482;-71
2022/02/07 06:46:37;;;;;;;14.77;2.50;;;3.90;99.90;;;;;;5067872;28;20044;-71
2022/02/07 06:49:03;;;;;;;15.15;2.47;;;3.80;99.90;;;;;;5061339;28;20105;-72
2022/02/07 06:51:28;;;;;;;12.95;2.92;;;3.70;99.90;;;;;;5074085;28;20115;-71
2022/02/07 06:53:54;;;;;;;15.75;2.38;;;3.70;99.90;;;;;;5038353;28;20075;-72
2022/02/07 06:56:20;;;;;;;18.50;4.40;;;3.70;99.90;;;;;;5080600;28;20128;-71
2022/02/07 06:58:47;;;;;;;19.50;2.63;;;3.60;99.90;;;;;;5047496;28;20082;-71
2022/02/07 07:01:13;;;;;;;22.25;2.90;;;3.60;99.90;;;;;;5078143;28;20045;-71
2022/02/07 07:03:43;;;;;;;17.35;2.38;;;3.60;99.90;;;;;;5066037;28;20057;-71
2022/02/07 07:06:08;;;;;;;16.23;2.92;;;3.60;99.90;;;;;;5059194;28;20391;-71
2022/02/07 07:08:38;;;;;;;13.38;2.60;;;3.50;99.90;;;;;;5054749;28;20056;-71
2022/02/07 07:11:05;;;;;;;20.25;3.20;;;3.60;99.90;;;;;;5064344;28;20055;-71
2022/02/07 07:13:39;;;;;;;19.70;3.38;;;3.70;99.90;;;;;;5048344;28;20111;-72
2022/02/07 07:16:25;;;;;;;20.98;3.40;;;3.70;99.90;;;;;;5065014;28;20127;-71
2022/02/07 07:18:51;;;;;;;14.63;3.15;;;3.70;99.90;;;;;;5070442;28;20075;-71
2022/02/07 07:21:16;;;;;;;23.63;3.15;;;3.70;99.90;;;;;;5071623;28;20080;-72
2022/02/07 07:23:43;;;;;;;21.23;2.92;;;3.80;99.90;;;;;;5063307;28;20054;-71
2022/02/07 07:26:09;;;;;;;16.70;3.08;;;3.80;99.90;;;;;;5062299;28;20040;-71
2022/02/07 07:28:37;;;;;;;20.92;3.22;;;3.70;99.90;;;;;;5039513;28;20057;-71
2022/02/07 07:31:05;;;;;;;19.67;3.35;;;3.80;99.90;;;;;;5034371;28;20063;-71
2022/02/07 07:33:32;;;;;;;19.92;3.03;;;3.80;99.90;;;;;;5063527;28;20038;-71
2022/02/07 07:35:58;;;;;;;18.95;3.65;;;3.80;99.90;;;;;;5059732;28;20387;-71
2022/02/07 07:38:24;;;;;;;20.25;4.20;;;3.80;99.90;;;;;;5054799;28;20089;-71
2022/02/07 07:40:50;;;;;;;20.48;4.10;;;3.90;99.90;;;;;;5063169;28;20053;-71
2022/02/07 07:43:16;;;;;;;19.85;3.58;;;3.90;99.90;;;;;;5054999;28;20367;-72
2022/02/07 07:45:46;;;;;;;22.05;2.83;;;3.90;99.90;;;;;;5049871;28;20040;-71
2022/02/07 07:48:16;;;;;;;24.27;3.40;;;4.00;99.90;;;;;;5060510;28;20059;-71
2022/02/07 08:03:41;;;;;;;25.58;3.78;;;4.40;99.90;;;;;;5045800;28;20136;-71
2022/02/07 08:06:12;;;;;;;21.92;4.00;;;4.40;99.90;;;;;;5059493;28;20037;-72
2022/02/07 08:08:47;;;;;;;22.10;4.20;;;4.30;99.90;;;;;;5050337;28;20053;-72
2022/02/07 08:11:15;;;;;;;25.95;3.70;;;4.40;99.90;;;;;;5067032;28;20120;-71
2022/02/07 08:13:42;;;;;;;20.98;3.35;;;4.40;99.90;;;;;;5044926;28;20075;-71
2022/02/07 08:16:08;;;;;;;24.58;4.32;;;4.50;99.90;;;;;;5024040;28;20044;-71
2022/02/07 08:18:34;;;;;;;24.17;4.32;;;4.50;99.90;;;;;;5044650;28;20044;-71
2022/02/07 08:20:59;;;;;;;25.45;4.72;;;4.60;99.90;;;;;;5045898;28;20044;-72
2022/02/07 08:23:25;;;;;;;25.50;3.92;;;4.60;99.90;;;;;;5077301;28;20102;-71
2022/02/07 08:25:52;;;;;;;23.50;4.80;;;4.70;99.90;;;;;;5053162;28;20479;-71
2022/02/07 08:28:18;;;;;;;25.70;4.20;;;4.80;99.90;;;;;;5046961;28;20486;-71
2022/02/07 08:30:44;;;;;;;25.85;4.38;;;4.90;99.90;;;;;;5051970;28;20033;-71
2022/02/07 08:33:09;;;;;;;26.52;4.03;;;4.90;99.90;;;;;;5046198;28;20110;-71
2022/02/07 08:35:35;;;;;;;25.98;4.82;;;5.00;99.90;;;;;;5076056;28;20072;-72
2022/02/07 08:38:01;;;;;;;21.88;4.10;;;5.00;99.90;;;;;;5045014;28;20068;-71
2022/02/07 08:40:27;;;;;;;22.88;4.18;;;5.10;99.90;;;;;;5072284;28;20033;-71
2022/02/07 08:42:54;;;;;;;21.40;4.15;;;5.10;99.90;;;;;;5029110;28;20049;-71
2022/02/07 08:45:20;;;;;;;29.15;4.60;;;5.20;99.90;;;;;;5054150;28;20043;-71
2022/02/07 08:47:46;;;;;;;25.40;4.88;;;5.30;99.90;;;;;;5038201;28;20091;-71
2022/02/07 08:50:13;;;;;;;22.75;3.95;;;5.40;99.90;;;;;;5048218;28;20648;-71
2022/02/07 08:52:42;;;;;;;23.63;4.50;;;5.50;99.90;;;;;;5053886;28;20091;-71
2022/02/07 08:55:12;;;;;;;19.95;3.58;;;5.60;99.90;;;;;;5042601;28;20087;-71
2022/02/07 08:57:43;;;;;;;35.13;4.72;;;5.70;99.90;;;;;;5064666;28;20161;-71
2022/02/07 09:00:17;;;;;;;28.88;5.45;;;5.70;99.90;;;;;;5060050;28;20037;-71
2022/02/07 09:08:09;;;;;;;24.98;4.55;;;5.90;99.90;;;;;;5057481;28;20078;-70
2022/02/07 09:10:34;;;;;;;20.25;4.10;;;6.00;99.90;;;;;;5067768;28;20405;-71
2022/02/07 09:13:00;;;;;;;23.67;3.85;;;6.10;99.90;;;;;;5067562;28;20041;-71
2022/02/07 09:18:13;;;;;;;27.95;3.50;;;6.30;99.90;;;;;;5011462;28;20052;-71
2022/02/07 09:20:43;;;;;;;16.33;3.25;;;6.40;99.90;;;;;;5046387;28;20040;-71
2022/02/07 09:23:09;;;;;;;20.75;4.78;;;6.50;99.90;;;;;;5041828;28;20076;-71
2022/02/07 09:25:35;;;;;;;32.25;3.70;;;6.50;99.90;;;;;;5042087;28;20123;-71
2022/02/07 09:28:00;;;;;;;17.92;3.58;;;6.60;99.90;;;;;;5046115;28;20543;-70
2022/02/07 09:30:27;;;;;;;19.98;2.85;;;6.70;99.90;;;;;;5070481;28;20072;-71
2022/02/07 09:32:53;;;;;;;22.73;3.65;;;6.80;99.90;;;;;;5042684;28;20552;-71
2022/02/07 09:35:18;;;;;;;22.05;3.88;;;6.80;99.90;;;;;;5066359;28;20044;-71
2022/02/07 09:37:45;;;;;;;24.73;4.30;;;6.80;99.90;;;;;;5065875;28;20076;-71
2022/02/07 09:40:12;;;;;;;22.30;4.30;;;6.90;99.90;;;;;;5065657;28;20037;-71
2022/02/07 09:42:41;;;;;;;24.05;4.53;;;7.00;99.90;;;;;;5049016;28;20036;-70
2022/02/07 09:45:18;;;;;;;27.95;5.57;;;7.00;99.90;;;;;;5054895;28;20457;-71
2022/02/07 09:47:44;;;;;;;20.63;4.18;;;7.10;99.90;;;;;;5056145;28;20044;-71
2022/02/07 09:50:09;;;;;;;26.30;5.28;;;7.20;99.90;;;;;;5053695;28;20084;-71
2022/02/07 09:52:35;;;;;;;27.83;5.00;;;7.20;99.90;;;;;;5042546;28;20426;-71
2022/02/07 09:55:03;;;;;;;20.92;3.47;;;7.20;99.90;;;;;;5042921;28;20025;-71
2022/02/07 09:57:28;;;;;;;21.08;3.95;;;7.30;99.90;;;;;;5042595;28;20048;-71
2022/02/07 09:59:55;;;;;;;28.95;4.80;;;7.30;99.90;;;;;;5075296;28;20054;-71
2022/02/07 10:02:35;;;;;;;21.52;3.53;;;7.20;99.90;;;;;;5075072;28;20115;-71
2022/02/07 10:05:06;;;;;;;23.52;4.15;;;7.20;99.90;;;;;;5045012;28;20037;-71
2022/02/07 10:07:54;;;;;;;23.90;4.35;;;7.20;99.90;;;;;;5025545;28;20033;-71
2022/02/07 10:10:28;;;;;;;22.15;3.88;;;7.20;99.90;;;;;;5055323;28;20075;-71
2022/02/07 10:18:20;;;;;;;18.75;3.58;;;7.50;99.90;;;;;;5042149;28;20482;-72
2022/02/07 10:21:27;;;;;;;20.45;3.90;;;7.50;99.90;;;;;;5061472;28;20036;-71
2022/02/07 10:35:26;;;;;;;18.20;2.70;;;7.50;99.90;;;;;;5052659;28;20402;-70
2022/02/07 10:38:04;;;;;;;20.77;4.10;;;7.70;99.90;;;;;;5053070;28;20041;-70
2022/02/07 10:40:53;;;;;;;16.92;3.92;;;7.60;99.90;;;;;;5048910;28;20128;-70
2022/02/07 10:46:14;;;;;;;19.48;2.63;;;7.80;99.90;;;;;;5053729;28;20048;-70
2022/02/07 10:48:45;;;;;;;11.80;2.45;;;7.80;99.90;;;;;;5043484;28;20045;-70
2022/02/07 10:51:15;;;;;;;18.33;3.45;;;7.90;99.90;;;;;;5052687;28;20040;-70
2022/02/07 10:53:44;;;;;;;15.95;3.60;;;7.90;99.90;;;;;;5052940;28;20532;-69
2022/02/07 10:56:10;;;;;;;16.65;3.40;;;7.90;99.90;;;;;;5042692;28;20034;-70
2022/02/07 10:58:37;;;;;;;19.02;3.53;;;7.80;99.90;;;;;;5046739;28;20091;-70
2022/02/07 11:01:11;;;;;;;20.00;3.38;;;7.70;99.90;;;;;;5037219;28;20036;-70
2022/02/07 11:03:45;;;;;;;26.35;4.30;;;7.70;99.90;;;;;;5054086;28;20026;-69
2022/02/07 11:06:14;;;;;;;15.23;3.45;;;7.60;99.90;;;;;;5036832;28;20079;-70
2022/02/07 11:08:49;;;;;;;21.17;3.25;;;7.80;99.90;;;;;;5073516;28;20041;-70
2022/02/07 11:28:18;;;;;;;18.25;3.35;;;8.00;99.90;;;;;;5048563;28;20060;-70
2022/02/07 11:30:19;;;;;;;18.97;3.97;;;8.20;99.90;;;;;;5037150;28;20132;-70
2022/02/07 11:32:49;;;;;;;16.73;3.25;;;8.20;99.90;;;;;;5047666;28;20040;-70
2022/02/07 11:35:19;;;;;;;18.20;3.08;;;8.30;99.90;;;;;;5057939;28;20045;-69
2022/02/07 11:38:12;;;;;;;16.17;3.28;;;8.10;99.90;;;;;;5040344;28;20119;-70
2022/02/07 11:40:43;;;;;;;15.63;2.88;;;8.00;99.90;;;;;;5047382;28;20360;-70
2022/02/07 11:43:17;;;;;;;15.02;2.83;;;7.90;99.90;;;;;;5049443;28;20041;-70
2022/02/07 11:46:08;;;;;;;15.35;2.72;;;7.90;99.90;;;;;;5026513;28;20071;-70
2022/02/07 11:48:43;;;;;;;14.82;2.90;;;8.00;99.90;;;;;;5046406;28;20072;-70
2022/02/07 11:51:21;;;;;;;19.35;3.65;;;7.90;99.90;;;;;;5078452;28;20124;-70
2022/02/07 11:53:49;;;;;;;17.80;2.75;;;8.10;99.90;;;;;;5054843;28;20454;-70
2022/02/07 11:56:36;;;;;;;16.45;3.15;;;8.10;99.90;;;;;;5076343;28;20053;-70
2022/02/07 11:59:08;;;;;;;15.32;3.03;;;8.10;99.90;;;;;;5046048;28;20045;-70
2022/02/07 12:01:45;;;;;;;;;;;8.10;99.90;;;;;;5040311;28;20084;-71
2022/02/07 12:04:11;;;;;;;16.95;2.90;;;8.10;99.90;;;;;;5052239;28;19921;-70
2022/02/07 12:06:37;;;;;;;20.10;3.65;;;8.20;99.90;;;;;;5050817;28;20033;-69
2022/02/07 12:09:03;;;;;;;16.13;2.75;;;8.30;99.90;;;;;;5049184;28;20037;-69
2022/02/07 12:11:43;;;;;;;19.20;3.40;;;8.30;99.90;;;;;;5057097;28;20041;-69
2022/02/07 12:14:36;;;;;;;17.15;2.50;;;8.30;99.90;;;;;;5054236;28;20638;-70
2022/02/07 12:17:03;;;;;;;14.85;3.28;;;8.30;99.90;;;;;;5070530;28;20037;-69
2022/02/07 12:19:39;;;;;;;12.70;2.75;;;8.30;99.90;;;;;;5045313;28;20037;-70
2022/02/07 12:22:16;;;;;;;13.73;2.60;;;8.20;99.90;;;;;;5046491;28;20048;-69
2022/02/07 12:25:02;;;;;;;16.63;3.13;;;8.30;99.90;;;;;;5057345;28;20410;-70
2022/02/07 12:27:29;;;;;;;17.52;2.85;;;8.30;99.90;;;;;;5045823;28;20028;-69
2022/02/07 12:32:40;;;;;;;11.25;2.60;;;8.20;99.90;;;;;;5048427;28;20084;-70
2022/02/07 12:35:06;;;;;;;18.92;3.30;;;8.00;99.90;;;;;;5040843;28;20430;-70
2022/02/07 12:37:37;;;;;;;17.65;2.90;;;8.00;99.90;;;;;;5042240;28;20033;-69
2022/02/07 12:40:08;;;;;;;12.50;2.35;;;7.90;99.90;;;;;;5045994;28;20367;-70
2022/02/07 12:42:35;;;;;;;14.20;2.28;;;7.90;99.90;;;;;;5073353;28;20430;-69
2022/02/07 12:45:03;;;;;;;13.18;2.38;;;7.80;99.90;;;;;;5057332;28;20055;-70
2022/02/07 12:47:30;;;;;;;15.55;3.13;;;7.80;99.90;;;;;;5044260;28;20036;-70
2022/02/07 12:50:07;;;;;;;18.67;3.25;;;8.00;99.90;;;;;;5050158;28;20122;-70
2022/02/07 12:52:37;;;;;;;17.95;2.40;;;8.00;99.90;;;;;;5064082;28;20108;-70
2022/02/07 12:55:05;;;;;;;16.38;2.53;;;8.10;99.90;;;;;;5070557;28;20530;-70
2022/02/07 12:57:44;;;;;;;13.43;3.53;;;8.10;99.90;;;;;;5048221;28;20037;-70
2022/02/07 13:00:14;;;;;;;10.73;2.25;;;8.20;99.90;;;;;;5043425;28;20551;-70
2022/02/07 13:02:48;;;;;;;15.10;2.80;;;8.30;99.90;;;;;;5056387;28;20054;-70
2022/02/07 13:05:20;;;;;;;13.45;2.50;;;8.30;99.90;;;;;;5054319;28;20049;-70
2022/02/07 13:07:48;;;;;;;;;;;8.40;99.90;;;;;;5071945;28;20084;-69
2022/02/07 13:10:20;;;;;;;9.00;1.75;;;8.50;99.90;;;;;;5050096;28;19925;-70
2022/02/07 13:15:22;;;;;;;13.25;2.80;;;8.80;99.90;;;;;;5046288;28;20041;-69
2022/02/07 13:17:52;;;;;;;14.88;2.72;;;8.70;99.90;;;;;;5056091;28;20052;-70
2022/02/07 13:20:20;;;;;;;14.60;3.13;;;8.80;99.90;;;;;;5042571;28;20694;-70
2022/02/07 13:22:46;;;;;;;15.40;2.50;;;8.90;99.90;;;;;;5072186;28;20217;-69
2022/02/07 13:25:13;;;;;;;17.52;2.83;;;9.00;99.90;;;;;;5026113;28;20518;-69
2022/02/07 13:27:40;;;;;;;15.15;2.33;;;9.10;99.90;;;;;;5031007;28;20116;-70
2022/02/07 13:30:12;;;;;;;12.25;2.13;;;9.00;99.90;;;;;;5046921;28;20044;-69
2022/02/07 13:32:38;;;;;;;;;;;9.00;99.90;;;;;;5039295;28;20076;-70
2022/02/07 13:35:13;;;;;;;11.85;2.40;;;9.00;99.90;;;;;;5052733;28;19917;-69
2022/02/07 13:37:40;;;;;;;12.38;2.03;;;9.00;99.90;;;;;;5050650;28;20052;-70
2022/02/07 13:40:14;;;;;;;14.73;2.30;;;8.90;99.90;;;;;;5043150;28;20053;-70
2022/02/07 13:42:45;;;;;;;9.63;1.63;;;9.00;99.90;;;;;;5046875;28;20097;-70
2022/02/07 13:45:17;;;;;;;11.23;1.73;;;8.90;99.90;;;;;;5040627;28;20123;-70
2022/02/07 13:47:45;;;;;;;14.30;1.85;;;8.90;99.90;;;;;;5082643;28;20044;-70
2022/02/07 13:50:13;;;;;;;14.52;2.90;;;8.80;99.90;;;;;;5043437;28;20040;-70
2022/02/07 13:52:41;;;;;;;12.98;2.55;;;8.80;99.90;;;;;;5057860;28;20040;-70
2022/02/07 13:55:21;;;;;;;13.43;2.05;;;8.80;99.90;;;;;;5062473;28;20064;-70
2022/02/07 13:57:54;;;;;;;8.07;1.70;;;9.00;99.90;;;;;;5060624;28;20045;-70
2022/02/07 14:00:23;;;;;;;9.15;2.05;;;9.00;99.90;;;;;;5041287;28;20534;-70
2022/02/07 14:03:01;;;;;;;12.00;2.60;;;8.90;99.90;;;;;;5068697;28;20040;-71
2022/02/07 14:05:38;;;;;;;10.63;2.05;;;8.90;99.90;;;;;;5077328;28;20604;-70
2022/02/07 14:08:06;;;;;;;10.98;2.45;;;8.90;99.90;;;;;;5080157;28;20767;-70
2022/02/07 14:10:36;;;;;;;8.32;1.67;;;8.70;99.90;;;;;;5076045;28;20556;-70
2022/02/07 14:13:08;;;;;;;14.85;2.08;;;8.50;99.90;;;;;;5051157;28;20526;-70
2022/02/07 14:15:35;;;;;;;11.70;1.92;;;8.40;99.90;;;;;;5050193;28;20033;-70
2022/02/07 14:18:06;;;;;;;11.48;2.55;;;8.10;99.90;;;;;;5050495;28;20083;-70
2022/02/07 14:20:34;;;;;;;14.87;2.33;;;7.90;99.90;;;;;;5057659;28;20411;-70
2022/02/07 14:23:00;;;;;;;12.65;2.30;;;7.90;99.90;;;;;;5067460;28;20502;-70
2022/02/07 14:25:29;;;;;;;11.23;1.77;;;8.00;99.90;;;;;;5051628;28;20132;-70
2022/02/07 14:28:00;;;;;;;13.50;2.33;;;7.90;99.90;;;;;;5072882;28;20053;-69
2022/02/07 14:30:26;;;;;;;8.65;2.25;;;7.90;99.90;;;;;;5065826;28;20474;-70
2022/02/07 14:32:53;;;;;;;12.48;2.20;;;8.00;99.90;;;;;;5059911;28;20055;-70
2022/02/07 14:35:19;;;;;;;11.15;2.30;;;8.00;99.90;;;;;;5056233;28;20037;-70
2022/02/07 14:37:45;;;;;;;12.25;2.67;;;8.10;99.90;;;;;;5059334;28;20049;-70
2022/02/07 14:40:11;;;;;;;19.70;2.20;;;8.00;99.90;;;;;;5075162;28;20041;-70
2022/02/07 14:42:37;;;;;;;8.77;1.58;;;8.00;99.90;;;;;;5049440;28;20039;-70
2022/02/07 14:45:18;;;;;;;17.20;2.38;;;8.00;99.90;;;;;;5051304;28;20037;-70
2022/02/07 14:50:12;;;;;;;11.63;1.80;;;7.90;99.90;;;;;;5070292;28;20052;-70
2022/02/07 14:52:38;;;;;;;12.63;2.67;;;7.80;99.90;;;;;;5045180;28;20094;-70
2022/02/07 14:55:05;;;;;;;9.80;2.22;;;7.80;99.90;;;;;;5039512;28;20044;-70
2022/02/07 14:57:31;;;;;;;9.35;1.85;;;7.80;99.90;;;;;;5067501;28;20063;-70
2022/02/07 14:59:57;;;;;;;8.70;1.77;;;7.80;99.90;;;;;;5044718;28;20040;-70
2022/02/07 15:02:23;;;;;;;10.50;2.03;;;7.80;99.90;;;;;;5047188;28;20159;-70
2022/02/07 15:04:49;;;;;;;13.02;1.88;;;7.80;99.90;;;;;;5040038;28;20762;-70
2022/02/07 15:07:15;;;;;;;10.85;2.08;;;7.70;99.90;;;;;;5075565;28;20049;-70
2022/02/07 15:09:41;;;;;;;13.63;2.00;;;7.60;99.90;;;;;;5073276;28;20046;-70
2022/02/07 15:12:07;;;;;;;10.85;1.92;;;7.60;99.90;;;;;;5080097;28;20041;-70
2022/02/07 15:14:32;;;;;;;17.08;3.08;;;7.60;99.90;;;;;;5042925;28;20117;-70
2022/02/07 15:17:04;;;;;;;13.40;2.53;;;7.50;99.90;;;;;;5045469;28;20127;-70
2022/02/07 15:19:29;;;;;;;9.27;1.77;;;7.30;99.90;;;;;;5063410;28;20049;-70
2022/02/07 15:21:55;;;;;;;12.48;2.15;;;7.30;99.90;;;;;;5036744;28;20300;-71
2022/02/07 15:24:22;;;;;;;9.75;1.92;;;7.30;99.90;;;;;;5037355;28;20416;-70
2022/02/07 15:26:48;;;;;;;9.77;1.73;;;7.30;99.90;;;;;;5041273;28;20471;-71
2022/02/07 15:29:14;;;;;;;13.75;2.65;;;7.30;99.90;;;;;;5036910;28;20387;-71
2022/02/07 15:31:46;;;;;;;14.18;2.78;;;7.30;99.90;;;;;;5028617;28;20034;-71
2022/02/07 15:34:12;;;;;;;12.85;2.22;;;7.30;99.90;;;;;;5040495;28;20501;-71
2022/02/07 15:36:37;;;;;;;13.90;2.40;;;7.30;99.90;;;;;;5046929;28;20066;-70